sensor_id;sensor_type;location;lat;lon;timestamp;P1;durP1;ratioP1;P2;durP2;ratioP2
67065;SDS011;53978;43.846;25.952;2023-05-10T00:00:55;5.18;;;3.90;;
67065;SDS011;53978;43.846;25.952;2023-05-10T00:03:20;6.78;;;4.30;;
67065;SDS011;53978;43.846;25.952;2023-05-10T00:05:45;8.73;;;3.97;;
67065;SDS011;53978;43.846;25.952;2023-05-10T00:08:11;8.00;;;4.80;;
67065;SDS011;53978;43.846;25.952;2023-05-10T00:10:36;7.43;;;5.45;;
67065;SDS011;53978;43.846;25.952;2023-05-10T00:13:02;7.35;;;4.47;;
67065;SDS011;53978;43.846;25.952;2023-05-10T00:15:28;4.80;;;4.25;;
67065;SDS011;53978;43.846;25.952;2023-05-10T00:17:55;6.95;;;4.55;;
67065;SDS011;53978;43.846;25.952;2023-05-10T00:20:21;6.97;;;4.35;;
67065;SDS011;53978;43.846;25.952;2023-05-10T00:22:46;7.10;;;4.38;;
67065;SDS011;53978;43.846;25.952;2023-05-10T00:25:12;5.47;;;4.07;;
67065;SDS011;53978;43.846;25.952;2023-05-10T00:27:37;7.10;;;4.40;;
67065;SDS011;53978;43.846;25.952;2023-05-10T00:30:03;5.32;;;4.38;;
67065;SDS011;53978;43.846;25.952;2023-05-10T00:32:28;6.55;;;4.38;;
67065;SDS011;53978;43.846;25.952;2023-05-10T00:34:54;6.15;;;4.47;;
67065;SDS011;53978;43.846;25.952;2023-05-10T00:37:19;5.82;;;4.25;;
67065;SDS011;53978;43.846;25.952;2023-05-10T00:39:45;6.30;;;3.90;;
67065;SDS011;53978;43.846;25.952;2023-05-10T00:42:10;6.07;;;4.22;;
67065;SDS011;53978;43.846;25.952;2023-05-10T00:44:36;5.32;;;3.88;;
67065;SDS011;53978;43.846;25.952;2023-05-10T00:47:01;5.15;;;3.97;;
67065;SDS011;53978;43.846;25.952;2023-05-10T00:49:27;5.20;;;3.55;;
67065;SDS011;53978;43.846;25.952;2023-05-10T00:51:52;7.75;;;4.38;;
67065;SDS011;53978;43.846;25.952;2023-05-10T00:54:18;9.25;;;4.50;;
67065;SDS011;53978;43.846;25.952;2023-05-10T00:56:43;6.07;;;4.28;;
67065;SDS011;53978;43.846;25.952;2023-05-10T00:59:14;6.55;;;4.30;;
67065;SDS011;53978;43.846;25.952;2023-05-10T01:01:43;6.35;;;4.85;;
67065;SDS011;53978;43.846;25.952;2023-05-10T01:04:10;5.47;;;4.45;;
67065;SDS011;53978;43.846;25.952;2023-05-10T01:06:37;7.65;;;4.68;;
67065;SDS011;53978;43.846;25.952;2023-05-10T01:09:03;5.72;;;4.13;;
67065;SDS011;53978;43.846;25.952;2023-05-10T01:11:29;6.85;;;4.45;;
67065;SDS011;53978;43.846;25.952;2023-05-10T01:13:55;8.98;;;3.92;;
67065;SDS011;53978;43.846;25.952;2023-05-10T01:16:21;6.90;;;4.65;;
67065;SDS011;53978;43.846;25.952;2023-05-10T01:18:47;7.28;;;4.15;;
67065;SDS011;53978;43.846;25.952;2023-05-10T01:26:39;5.38;;;4.40;;
67065;SDS011;53978;43.846;25.952;2023-05-10T01:35:55;9.40;;;4.72;;
67065;SDS011;53978;43.846;25.952;2023-05-10T01:48:22;5.78;;;4.00;;
67065;SDS011;53978;43.846;25.952;2023-05-10T01:50:48;4.82;;;4.10;;
67065;SDS011;53978;43.846;25.952;2023-05-10T01:53:17;8.82;;;3.83;;
67065;SDS011;53978;43.846;25.952;2023-05-10T01:55:50;7.85;;;4.53;;
67065;SDS011;53978;43.846;25.952;2023-05-10T01:58:25;5.20;;;4.07;;
67065;SDS011;53978;43.846;25.952;2023-05-10T02:00:53;6.72;;;3.75;;
67065;SDS011;53978;43.846;25.952;2023-05-10T02:03:20;4.10;;;3.67;;
67065;SDS011;53978;43.846;25.952;2023-05-10T02:05:48;6.38;;;4.10;;
67065;SDS011;53978;43.846;25.952;2023-05-10T02:08:14;5.68;;;4.15;;
67065;SDS011;53978;43.846;25.952;2023-05-10T02:10:40;8.82;;;4.40;;
67065;SDS011;53978;43.846;25.952;2023-05-10T02:13:07;5.85;;;4.15;;
67065;SDS011;53978;43.846;25.952;2023-05-10T02:15:32;6.03;;;4.07;;
67065;SDS011;53978;43.846;25.952;2023-05-10T02:17:59;5.90;;;3.90;;
67065;SDS011;53978;43.846;25.952;2023-05-10T02:20:25;4.45;;;3.63;;
67065;SDS011;53978;43.846;25.952;2023-05-10T02:22:52;6.55;;;3.53;;
67065;SDS011;53978;43.846;25.952;2023-05-10T02:25:19;4.78;;;3.67;;
67065;SDS011;53978;43.846;25.952;2023-05-10T02:27:45;5.72;;;3.67;;
67065;SDS011;53978;43.846;25.952;2023-05-10T02:30:11;4.55;;;3.67;;
67065;SDS011;53978;43.846;25.952;2023-05-10T02:32:38;4.72;;;3.53;;
67065;SDS011;53978;43.846;25.952;2023-05-10T02:35:04;4.45;;;4.05;;
67065;SDS011;53978;43.846;25.952;2023-05-10T02:37:30;4.32;;;3.85;;
67065;SDS011;53978;43.846;25.952;2023-05-10T02:39:55;4.78;;;3.80;;
67065;SDS011;53978;43.846;25.952;2023-05-10T02:42:27;5.93;;;3.65;;
67065;SDS011;53978;43.846;25.952;2023-05-10T02:44:57;5.22;;;4.07;;
67065;SDS011;53978;43.846;25.952;2023-05-10T02:47:25;5.97;;;4.18;;
67065;SDS011;53978;43.846;25.952;2023-05-10T02:49:50;5.18;;;4.13;;
67065;SDS011;53978;43.846;25.952;2023-05-10T02:52:16;5.30;;;4.13;;
67065;SDS011;53978;43.846;25.952;2023-05-10T02:54:46;5.55;;;4.13;;
67065;SDS011;53978;43.846;25.952;2023-05-10T02:57:16;6.38;;;3.88;;
67065;SDS011;53978;43.846;25.952;2023-05-10T02:59:43;6.43;;;4.15;;
67065;SDS011;53978;43.846;25.952;2023-05-10T03:02:10;16.35;;;5.03;;
67065;SDS011;53978;43.846;25.952;2023-05-10T03:04:37;6.63;;;4.35;;
67065;SDS011;53978;43.846;25.952;2023-05-10T03:07:02;5.65;;;4.10;;
67065;SDS011;53978;43.846;25.952;2023-05-10T03:09:28;9.10;;;4.18;;
67065;SDS011;53978;43.846;25.952;2023-05-10T03:14:42;5.50;;;3.88;;
67065;SDS011;53978;43.846;25.952;2023-05-10T03:19:58;13.75;;;3.78;;
67065;SDS011;53978;43.846;25.952;2023-05-10T03:25:00;3.60;;;2.97;;
67065;SDS011;53978;43.846;25.952;2023-05-10T03:27:31;4.43;;;3.25;;
67065;SDS011;53978;43.846;25.952;2023-05-10T03:29:57;4.85;;;3.63;;
67065;SDS011;53978;43.846;25.952;2023-05-10T03:32:23;6.80;;;4.03;;
67065;SDS011;53978;43.846;25.952;2023-05-10T03:34:48;4.53;;;3.63;;
67065;SDS011;53978;43.846;25.952;2023-05-10T03:37:13;6.25;;;4.07;;
67065;SDS011;53978;43.846;25.952;2023-05-10T03:39:39;5.43;;;3.83;;
67065;SDS011;53978;43.846;25.952;2023-05-10T03:42:04;5.30;;;3.58;;
67065;SDS011;53978;43.846;25.952;2023-05-10T03:44:30;4.55;;;3.72;;
67065;SDS011;53978;43.846;25.952;2023-05-10T03:46:58;5.80;;;4.00;;
67065;SDS011;53978;43.846;25.952;2023-05-10T03:49:23;5.85;;;4.07;;
67065;SDS011;53978;43.846;25.952;2023-05-10T03:51:48;5.85;;;4.07;;
67065;SDS011;53978;43.846;25.952;2023-05-10T03:54:14;5.25;;;3.97;;
67065;SDS011;53978;43.846;25.952;2023-05-10T03:56:39;6.18;;;4.57;;
67065;SDS011;53978;43.846;25.952;2023-05-10T03:59:05;6.95;;;4.30;;
67065;SDS011;53978;43.846;25.952;2023-05-10T04:01:33;5.82;;;4.47;;
67065;SDS011;53978;43.846;25.952;2023-05-10T04:03:58;4.82;;;3.58;;
67065;SDS011;53978;43.846;25.952;2023-05-10T04:06:24;6.07;;;3.97;;
67065;SDS011;53978;43.846;25.952;2023-05-10T04:08:49;7.22;;;3.92;;
67065;SDS011;53978;43.846;25.952;2023-05-10T04:11:15;7.43;;;4.13;;
67065;SDS011;53978;43.846;25.952;2023-05-10T04:13:40;5.40;;;4.05;;
67065;SDS011;53978;43.846;25.952;2023-05-10T04:16:06;6.75;;;4.10;;
67065;SDS011;53978;43.846;25.952;2023-05-10T04:18:31;9.82;;;4.25;;
67065;SDS011;53978;43.846;25.952;2023-05-10T04:20:57;5.05;;;4.05;;
67065;SDS011;53978;43.846;25.952;2023-05-10T04:23:22;7.50;;;4.78;;
67065;SDS011;53978;43.846;25.952;2023-05-10T04:25:48;9.00;;;4.40;;
67065;SDS011;53978;43.846;25.952;2023-05-10T04:28:13;5.80;;;4.00;;
67065;SDS011;53978;43.846;25.952;2023-05-10T04:30:39;5.82;;;4.00;;
67065;SDS011;53978;43.846;25.952;2023-05-10T04:33:05;9.70;;;4.32;;
67065;SDS011;53978;43.846;25.952;2023-05-10T04:35:30;5.65;;;4.22;;
67065;SDS011;53978;43.846;25.952;2023-05-10T04:37:56;7.20;;;4.13;;
67065;SDS011;53978;43.846;25.952;2023-05-10T04:40:21;6.63;;;4.30;;
67065;SDS011;53978;43.846;25.952;2023-05-10T04:42:47;6.43;;;4.32;;
67065;SDS011;53978;43.846;25.952;2023-05-10T04:45:12;7.70;;;4.03;;
67065;SDS011;53978;43.846;25.952;2023-05-10T04:47:39;7.20;;;4.53;;
67065;SDS011;53978;43.846;25.952;2023-05-10T04:50:05;16.13;;;5.82;;
67065;SDS011;53978;43.846;25.952;2023-05-10T04:52:31;7.82;;;5.18;;
67065;SDS011;53978;43.846;25.952;2023-05-10T04:54:56;12.80;;;5.15;;
67065;SDS011;53978;43.846;25.952;2023-05-10T04:57:22;8.73;;;5.03;;
67065;SDS011;53978;43.846;25.952;2023-05-10T04:59:47;7.32;;;4.80;;
67065;SDS011;53978;43.846;25.952;2023-05-10T05:02:13;6.88;;;4.68;;
67065;SDS011;53978;43.846;25.952;2023-05-10T05:04:38;6.80;;;4.60;;
67065;SDS011;53978;43.846;25.952;2023-05-10T05:07:03;7.40;;;4.85;;
67065;SDS011;53978;43.846;25.952;2023-05-10T05:09:29;13.65;;;5.95;;
67065;SDS011;53978;43.846;25.952;2023-05-10T05:11:56;15.70;;;7.18;;
67065;SDS011;53978;43.846;25.952;2023-05-10T05:14:22;9.90;;;6.13;;
67065;SDS011;53978;43.846;25.952;2023-05-10T05:16:49;7.90;;;6.00;;
67065;SDS011;53978;43.846;25.952;2023-05-10T05:19:15;13.57;;;6.13;;
67065;SDS011;53978;43.846;25.952;2023-05-10T05:21:41;10.25;;;6.70;;
67065;SDS011;53978;43.846;25.952;2023-05-10T05:24:06;9.63;;;6.28;;
67065;SDS011;53978;43.846;25.952;2023-05-10T05:26:32;16.63;;;7.10;;
67065;SDS011;53978;43.846;25.952;2023-05-10T05:28:58;11.70;;;6.82;;
67065;SDS011;53978;43.846;25.952;2023-05-10T05:31:23;11.82;;;6.65;;
67065;SDS011;53978;43.846;25.952;2023-05-10T05:33:49;10.77;;;6.57;;
67065;SDS011;53978;43.846;25.952;2023-05-10T05:36:14;11.80;;;6.75;;
67065;SDS011;53978;43.846;25.952;2023-05-10T05:38:39;12.95;;;6.57;;
67065;SDS011;53978;43.846;25.952;2023-05-10T05:41:05;8.48;;;6.25;;
67065;SDS011;53978;43.846;25.952;2023-05-10T05:43:30;10.75;;;5.97;;
67065;SDS011;53978;43.846;25.952;2023-05-10T05:45:56;10.35;;;5.82;;
67065;SDS011;53978;43.846;25.952;2023-05-10T05:48:22;10.75;;;6.60;;
67065;SDS011;53978;43.846;25.952;2023-05-10T05:50:48;8.75;;;5.72;;
67065;SDS011;53978;43.846;25.952;2023-05-10T05:53:14;10.95;;;6.75;;
67065;SDS011;53978;43.846;25.952;2023-05-10T05:55:39;8.75;;;5.72;;
67065;SDS011;53978;43.846;25.952;2023-05-10T05:58:05;10.32;;;6.47;;
67065;SDS011;53978;43.846;25.952;2023-05-10T06:00:30;13.23;;;6.97;;
67065;SDS011;53978;43.846;25.952;2023-05-10T06:02:56;11.57;;;6.55;;
67065;SDS011;53978;43.846;25.952;2023-05-10T06:05:22;8.57;;;6.25;;
67065;SDS011;53978;43.846;25.952;2023-05-10T06:07:47;9.48;;;6.90;;
67065;SDS011;53978;43.846;25.952;2023-05-10T06:10:12;11.88;;;6.68;;
67065;SDS011;53978;43.846;25.952;2023-05-10T06:12:38;8.93;;;6.05;;
67065;SDS011;53978;43.846;25.952;2023-05-10T06:15:06;9.80;;;6.30;;
67065;SDS011;53978;43.846;25.952;2023-05-10T06:17:32;10.15;;;6.75;;
67065;SDS011;53978;43.846;25.952;2023-05-10T06:19:57;8.25;;;5.70;;
67065;SDS011;53978;43.846;25.952;2023-05-10T06:22:22;8.23;;;5.72;;
67065;SDS011;53978;43.846;25.952;2023-05-10T06:24:48;9.50;;;5.95;;
67065;SDS011;53978;43.846;25.952;2023-05-10T06:27:14;12.80;;;6.95;;
67065;SDS011;53978;43.846;25.952;2023-05-10T06:29:39;8.70;;;6.35;;
67065;SDS011;53978;43.846;25.952;2023-05-10T06:32:07;15.68;;;6.40;;
67065;SDS011;53978;43.846;25.952;2023-05-10T06:34:35;9.40;;;6.25;;
67065;SDS011;53978;43.846;25.952;2023-05-10T06:37:00;9.20;;;6.22;;
67065;SDS011;53978;43.846;25.952;2023-05-10T06:39:25;12.95;;;7.18;;
67065;SDS011;53978;43.846;25.952;2023-05-10T06:41:51;13.68;;;6.30;;
67065;SDS011;53978;43.846;25.952;2023-05-10T06:44:17;13.25;;;6.38;;
67065;SDS011;53978;43.846;25.952;2023-05-10T06:46:42;11.18;;;6.38;;
67065;SDS011;53978;43.846;25.952;2023-05-10T06:49:07;10.80;;;6.57;;
67065;SDS011;53978;43.846;25.952;2023-05-10T06:51:33;15.35;;;7.15;;
67065;SDS011;53978;43.846;25.952;2023-05-10T06:53:58;11.95;;;6.55;;
67065;SDS011;53978;43.846;25.952;2023-05-10T06:56:26;13.05;;;5.80;;
67065;SDS011;53978;43.846;25.952;2023-05-10T06:58:52;7.88;;;5.90;;
67065;SDS011;53978;43.846;25.952;2023-05-10T07:01:17;9.18;;;6.00;;
67065;SDS011;53978;43.846;25.952;2023-05-10T07:03:43;9.70;;;6.00;;
67065;SDS011;53978;43.846;25.952;2023-05-10T07:06:08;7.15;;;4.70;;
67065;SDS011;53978;43.846;25.952;2023-05-10T07:08:33;8.35;;;5.07;;
67065;SDS011;53978;43.846;25.952;2023-05-10T07:11:02;7.68;;;5.43;;
67065;SDS011;53978;43.846;25.952;2023-05-10T07:13:29;7.53;;;5.00;;
67065;SDS011;53978;43.846;25.952;2023-05-10T07:15:59;9.43;;;5.07;;
67065;SDS011;53978;43.846;25.952;2023-05-10T07:18:25;8.82;;;5.18;;
67065;SDS011;53978;43.846;25.952;2023-05-10T07:20:51;13.57;;;5.22;;
67065;SDS011;53978;43.846;25.952;2023-05-10T07:23:16;13.38;;;5.80;;
67065;SDS011;53978;43.846;25.952;2023-05-10T07:25:48;6.07;;;4.45;;
67065;SDS011;53978;43.846;25.952;2023-05-10T07:28:16;8.82;;;4.80;;
67065;SDS011;53978;43.846;25.952;2023-05-10T07:30:42;8.48;;;4.85;;
67065;SDS011;53978;43.846;25.952;2023-05-10T07:33:08;14.27;;;5.38;;
67065;SDS011;53978;43.846;25.952;2023-05-10T07:35:34;9.27;;;4.97;;
67065;SDS011;53978;43.846;25.952;2023-05-10T07:37:59;12.50;;;5.43;;
67065;SDS011;53978;43.846;25.952;2023-05-10T07:40:25;6.85;;;4.70;;
67065;SDS011;53978;43.846;25.952;2023-05-10T07:42:51;10.85;;;4.55;;
67065;SDS011;53978;43.846;25.952;2023-05-10T07:45:17;6.15;;;4.68;;
67065;SDS011;53978;43.846;25.952;2023-05-10T07:47:43;9.27;;;5.35;;
67065;SDS011;53978;43.846;25.952;2023-05-10T07:50:08;10.23;;;5.18;;
67065;SDS011;53978;43.846;25.952;2023-05-10T07:52:34;5.63;;;3.65;;
67065;SDS011;53978;43.846;25.952;2023-05-10T07:54:59;9.80;;;4.50;;
67065;SDS011;53978;43.846;25.952;2023-05-10T07:57:24;5.82;;;3.65;;
67065;SDS011;53978;43.846;25.952;2023-05-10T07:59:50;7.38;;;3.58;;
67065;SDS011;53978;43.846;25.952;2023-05-10T08:02:15;6.00;;;4.20;;
67065;SDS011;53978;43.846;25.952;2023-05-10T08:04:41;8.20;;;3.67;;
67065;SDS011;53978;43.846;25.952;2023-05-10T08:07:06;4.43;;;3.50;;
67065;SDS011;53978;43.846;25.952;2023-05-10T08:09:32;7.82;;;4.53;;
67065;SDS011;53978;43.846;25.952;2023-05-10T08:11:57;14.15;;;6.82;;
67065;SDS011;53978;43.846;25.952;2023-05-10T08:14:24;6.57;;;3.80;;
67065;SDS011;53978;43.846;25.952;2023-05-10T08:16:50;5.75;;;3.40;;
67065;SDS011;53978;43.846;25.952;2023-05-10T08:19:16;7.68;;;3.60;;
67065;SDS011;53978;43.846;25.952;2023-05-10T08:21:44;9.02;;;4.03;;
67065;SDS011;53978;43.846;25.952;2023-05-10T08:24:10;8.93;;;3.63;;
67065;SDS011;53978;43.846;25.952;2023-05-10T08:26:36;8.60;;;4.07;;
67065;SDS011;53978;43.846;25.952;2023-05-10T08:29:03;14.95;;;3.42;;
67065;SDS011;53978;43.846;25.952;2023-05-10T08:31:29;5.47;;;3.60;;
67065;SDS011;53978;43.846;25.952;2023-05-10T08:33:54;4.75;;;3.33;;
67065;SDS011;53978;43.846;25.952;2023-05-10T08:36:20;4.38;;;3.75;;
67065;SDS011;53978;43.846;25.952;2023-05-10T08:38:50;5.93;;;3.20;;
67065;SDS011;53978;43.846;25.952;2023-05-10T08:41:17;2.25;;;2.05;;
67065;SDS011;53978;43.846;25.952;2023-05-10T08:43:45;3.38;;;2.10;;
67065;SDS011;53978;43.846;25.952;2023-05-10T08:46:13;4.53;;;2.22;;
67065;SDS011;53978;43.846;25.952;2023-05-10T08:48:42;13.52;;;4.50;;
67065;SDS011;53978;43.846;25.952;2023-05-10T08:51:09;4.20;;;3.00;;
67065;SDS011;53978;43.846;25.952;2023-05-10T08:53:35;3.45;;;2.05;;
67065;SDS011;53978;43.846;25.952;2023-05-10T08:56:01;4.40;;;2.70;;
67065;SDS011;53978;43.846;25.952;2023-05-10T08:58:27;5.25;;;2.35;;
67065;SDS011;53978;43.846;25.952;2023-05-10T09:00:53;12.40;;;4.43;;
67065;SDS011;53978;43.846;25.952;2023-05-10T09:03:18;4.50;;;2.40;;
67065;SDS011;53978;43.846;25.952;2023-05-10T09:05:43;4.75;;;2.25;;
67065;SDS011;53978;43.846;25.952;2023-05-10T09:08:09;2.42;;;1.70;;
67065;SDS011;53978;43.846;25.952;2023-05-10T09:10:36;4.15;;;1.60;;
67065;SDS011;53978;43.846;25.952;2023-05-10T09:13:03;2.05;;;1.40;;
67065;SDS011;53978;43.846;25.952;2023-05-10T09:15:29;2.97;;;1.42;;
67065;SDS011;53978;43.846;25.952;2023-05-10T09:17:55;4.03;;;1.98;;
67065;SDS011;53978;43.846;25.952;2023-05-10T09:20:22;6.70;;;2.60;;
67065;SDS011;53978;43.846;25.952;2023-05-10T09:22:48;4.38;;;2.60;;
67065;SDS011;53978;43.846;25.952;2023-05-10T09:25:15;2.53;;;1.98;;
67065;SDS011;53978;43.846;25.952;2023-05-10T09:27:41;6.82;;;1.83;;
67065;SDS011;53978;43.846;25.952;2023-05-10T09:30:10;6.10;;;3.00;;
67065;SDS011;53978;43.846;25.952;2023-05-10T09:37:40;3.97;;;2.00;;
67065;SDS011;53978;43.846;25.952;2023-05-10T09:40:07;4.97;;;2.85;;
67065;SDS011;53978;43.846;25.952;2023-05-10T09:42:33;7.93;;;3.80;;
67065;SDS011;53978;43.846;25.952;2023-05-10T09:45:03;3.40;;;2.45;;
67065;SDS011;53978;43.846;25.952;2023-05-10T09:47:31;2.40;;;1.85;;
67065;SDS011;53978;43.846;25.952;2023-05-10T09:49:58;2.63;;;1.58;;
67065;SDS011;53978;43.846;25.952;2023-05-10T09:52:28;5.63;;;1.98;;
67065;SDS011;53978;43.846;25.952;2023-05-10T09:54:53;2.95;;;1.52;;
67065;SDS011;53978;43.846;25.952;2023-05-10T09:57:23;1.48;;;1.30;;
67065;SDS011;53978;43.846;25.952;2023-05-10T09:59:49;4.25;;;1.58;;
67065;SDS011;53978;43.846;25.952;2023-05-10T10:02:15;3.58;;;1.90;;
67065;SDS011;53978;43.846;25.952;2023-05-10T10:04:41;4.30;;;1.80;;
67065;SDS011;53978;43.846;25.952;2023-05-10T10:07:07;3.90;;;1.80;;
67065;SDS011;53978;43.846;25.952;2023-05-10T10:09:33;4.80;;;2.25;;
67065;SDS011;53978;43.846;25.952;2023-05-10T10:12:00;4.05;;;1.90;;
67065;SDS011;53978;43.846;25.952;2023-05-10T10:14:27;4.60;;;1.60;;
67065;SDS011;53978;43.846;25.952;2023-05-10T10:16:53;4.80;;;2.15;;
67065;SDS011;53978;43.846;25.952;2023-05-10T10:19:18;3.05;;;1.83;;
67065;SDS011;53978;43.846;25.952;2023-05-10T10:21:45;3.13;;;1.70;;
67065;SDS011;53978;43.846;25.952;2023-05-10T10:24:11;5.13;;;1.80;;
67065;SDS011;53978;43.846;25.952;2023-05-10T10:26:37;4.13;;;1.73;;
67065;SDS011;53978;43.846;25.952;2023-05-10T10:31:45;2.63;;;1.77;;
67065;SDS011;53978;43.846;25.952;2023-05-10T10:34:25;4.90;;;2.08;;
67065;SDS011;53978;43.846;25.952;2023-05-10T10:36:55;2.08;;;1.52;;
67065;SDS011;53978;43.846;25.952;2023-05-10T10:39:21;2.25;;;1.77;;
67065;SDS011;53978;43.846;25.952;2023-05-10T10:41:50;3.47;;;2.00;;
67065;SDS011;53978;43.846;25.952;2023-05-10T10:49:50;8.02;;;2.08;;
67065;SDS011;53978;43.846;25.952;2023-05-10T10:52:27;2.80;;;1.60;;
67065;SDS011;53978;43.846;25.952;2023-05-10T10:55:13;1.60;;;1.38;;
67065;SDS011;53978;43.846;25.952;2023-05-10T10:57:50;2.83;;;1.50;;
67065;SDS011;53978;43.846;25.952;2023-05-10T11:02:55;1.85;;;1.67;;
67065;SDS011;53978;43.846;25.952;2023-05-10T11:07:58;5.82;;;2.10;;
67065;SDS011;53978;43.846;25.952;2023-05-10T11:10:25;3.08;;;1.20;;
67065;SDS011;53978;43.846;25.952;2023-05-10T11:13:03;1.80;;;1.33;;
67065;SDS011;53978;43.846;25.952;2023-05-10T11:15:32;2.08;;;1.50;;
67065;SDS011;53978;43.846;25.952;2023-05-10T11:17:59;1.42;;;1.33;;
67065;SDS011;53978;43.846;25.952;2023-05-10T11:20:28;2.63;;;1.48;;
67065;SDS011;53978;43.846;25.952;2023-05-10T11:22:58;2.95;;;1.50;;
67065;SDS011;53978;43.846;25.952;2023-05-10T11:25:40;1.60;;;1.48;;
67065;SDS011;53978;43.846;25.952;2023-05-10T11:28:07;1.55;;;1.38;;
67065;SDS011;53978;43.846;25.952;2023-05-10T11:30:39;1.45;;;1.30;;
67065;SDS011;53978;43.846;25.952;2023-05-10T11:33:06;1.52;;;1.42;;
67065;SDS011;53978;43.846;25.952;2023-05-10T11:35:38;4.10;;;1.40;;
67065;SDS011;53978;43.846;25.952;2023-05-10T11:38:05;1.35;;;1.25;;
67065;SDS011;53978;43.846;25.952;2023-05-10T11:40:34;1.90;;;1.30;;
67065;SDS011;53978;43.846;25.952;2023-05-10T11:43:00;1.40;;;1.25;;
67065;SDS011;53978;43.846;25.952;2023-05-10T11:45:26;1.48;;;1.35;;
67065;SDS011;53978;43.846;25.952;2023-05-10T11:47:53;2.03;;;1.30;;
67065;SDS011;53978;43.846;25.952;2023-05-10T11:50:18;2.75;;;1.50;;
67065;SDS011;53978;43.846;25.952;2023-05-10T11:52:43;1.75;;;1.42;;
67065;SDS011;53978;43.846;25.952;2023-05-10T11:55:09;1.50;;;1.38;;
67065;SDS011;53978;43.846;25.952;2023-05-10T11:57:35;4.90;;;1.58;;
67065;SDS011;53978;43.846;25.952;2023-05-10T12:00:00;9.05;;;1.60;;
67065;SDS011;53978;43.846;25.952;2023-05-10T12:02:28;6.40;;;1.88;;
67065;SDS011;53978;43.846;25.952;2023-05-10T12:04:54;1.88;;;1.70;;
67065;SDS011;53978;43.846;25.952;2023-05-10T12:07:20;3.22;;;1.50;;
67065;SDS011;53978;43.846;25.952;2023-05-10T12:12:39;3.97;;;2.35;;
67065;SDS011;53978;43.846;25.952;2023-05-10T12:15:09;3.22;;;1.77;;
67065;SDS011;53978;43.846;25.952;2023-05-10T12:17:41;2.17;;;1.67;;
67065;SDS011;53978;43.846;25.952;2023-05-10T12:20:13;7.22;;;2.63;;
67065;SDS011;53978;43.846;25.952;2023-05-10T12:22:39;4.85;;;1.98;;
67065;SDS011;53978;43.846;25.952;2023-05-10T12:25:05;3.15;;;1.33;;
67065;SDS011;53978;43.846;25.952;2023-05-10T12:27:32;2.38;;;1.58;;
67065;SDS011;53978;43.846;25.952;2023-05-10T12:29:59;1.50;;;1.40;;
67065;SDS011;53978;43.846;25.952;2023-05-10T12:32:37;4.20;;;2.47;;
67065;SDS011;53978;43.846;25.952;2023-05-10T12:35:06;4.07;;;2.00;;
67065;SDS011;53978;43.846;25.952;2023-05-10T12:37:32;1.70;;;1.48;;
67065;SDS011;53978;43.846;25.952;2023-05-10T12:40:03;2.85;;;1.50;;
67065;SDS011;53978;43.846;25.952;2023-05-10T12:42:30;2.58;;;1.40;;
67065;SDS011;53978;43.846;25.952;2023-05-10T12:44:56;3.55;;;1.52;;
67065;SDS011;53978;43.846;25.952;2023-05-10T12:47:22;1.60;;;1.50;;
67065;SDS011;53978;43.846;25.952;2023-05-10T12:49:47;6.97;;;1.70;;
67065;SDS011;53978;43.846;25.952;2023-05-10T12:52:13;2.97;;;1.80;;
67065;SDS011;53978;43.846;25.952;2023-05-10T12:54:38;3.67;;;2.15;;
67065;SDS011;53978;43.846;25.952;2023-05-10T12:57:04;4.43;;;2.08;;
67065;SDS011;53978;43.846;25.952;2023-05-10T12:59:29;2.35;;;1.58;;
67065;SDS011;53978;43.846;25.952;2023-05-10T13:01:55;3.20;;;1.23;;
67065;SDS011;53978;43.846;25.952;2023-05-10T13:04:20;2.40;;;1.40;;
67065;SDS011;53978;43.846;25.952;2023-05-10T13:06:46;4.75;;;2.20;;
67065;SDS011;53978;43.846;25.952;2023-05-10T13:09:11;2.78;;;2.10;;
67065;SDS011;53978;43.846;25.952;2023-05-10T13:11:37;10.38;;;2.08;;
67065;SDS011;53978;43.846;25.952;2023-05-10T13:14:02;6.95;;;2.00;;
67065;SDS011;53978;43.846;25.952;2023-05-10T13:16:28;6.75;;;2.50;;
67065;SDS011;53978;43.846;25.952;2023-05-10T13:18:53;3.60;;;2.22;;
67065;SDS011;53978;43.846;25.952;2023-05-10T13:21:19;1.60;;;1.50;;
67065;SDS011;53978;43.846;25.952;2023-05-10T13:23:44;2.60;;;1.48;;
67065;SDS011;53978;43.846;25.952;2023-05-10T13:26:11;3.78;;;1.73;;
67065;SDS011;53978;43.846;25.952;2023-05-10T13:28:37;4.47;;;2.10;;
67065;SDS011;53978;43.846;25.952;2023-05-10T13:31:03;5.70;;;1.65;;
67065;SDS011;53978;43.846;25.952;2023-05-10T13:33:29;5.93;;;1.73;;
67065;SDS011;53978;43.846;25.952;2023-05-10T13:35:55;12.90;;;1.88;;
67065;SDS011;53978;43.846;25.952;2023-05-10T13:38:20;2.50;;;1.80;;
67065;SDS011;53978;43.846;25.952;2023-05-10T13:40:46;3.20;;;1.92;;
67065;SDS011;53978;43.846;25.952;2023-05-10T13:43:11;5.35;;;2.47;;
67065;SDS011;53978;43.846;25.952;2023-05-10T13:45:37;4.38;;;2.50;;
67065;SDS011;53978;43.846;25.952;2023-05-10T13:48:02;4.13;;;2.28;;
67065;SDS011;53978;43.846;25.952;2023-05-10T13:50:28;3.17;;;1.60;;
67065;SDS011;53978;43.846;25.952;2023-05-10T13:52:53;4.95;;;1.67;;
67065;SDS011;53978;43.846;25.952;2023-05-10T13:55:18;4.50;;;1.40;;
67065;SDS011;53978;43.846;25.952;2023-05-10T13:57:44;2.90;;;1.65;;
67065;SDS011;53978;43.846;25.952;2023-05-10T14:00:09;2.65;;;1.40;;
67065;SDS011;53978;43.846;25.952;2023-05-10T14:02:35;6.97;;;1.58;;
67065;SDS011;53978;43.846;25.952;2023-05-10T14:05:01;4.13;;;1.85;;
67065;SDS011;53978;43.846;25.952;2023-05-10T14:07:26;1.98;;;1.60;;
67065;SDS011;53978;43.846;25.952;2023-05-10T14:09:52;5.28;;;1.50;;
67065;SDS011;53978;43.846;25.952;2023-05-10T14:12:19;2.05;;;1.60;;
67065;SDS011;53978;43.846;25.952;2023-05-10T14:14:45;1.40;;;1.30;;
67065;SDS011;53978;43.846;25.952;2023-05-10T14:17:10;1.90;;;1.48;;
67065;SDS011;53978;43.846;25.952;2023-05-10T14:19:36;3.03;;;1.60;;
67065;SDS011;53978;43.846;25.952;2023-05-10T14:22:04;4.57;;;1.40;;
67065;SDS011;53978;43.846;25.952;2023-05-10T14:24:29;1.65;;;1.50;;
67065;SDS011;53978;43.846;25.952;2023-05-10T14:26:54;1.73;;;1.38;;
67065;SDS011;53978;43.846;25.952;2023-05-10T14:29:20;2.08;;;1.50;;
67065;SDS011;53978;43.846;25.952;2023-05-10T14:31:46;1.50;;;1.40;;
67065;SDS011;53978;43.846;25.952;2023-05-10T14:34:11;3.60;;;1.63;;
67065;SDS011;53978;43.846;25.952;2023-05-10T14:36:39;7.63;;;1.60;;
67065;SDS011;53978;43.846;25.952;2023-05-10T14:39:05;1.55;;;1.42;;
67065;SDS011;53978;43.846;25.952;2023-05-10T14:41:41;4.05;;;1.30;;
67065;SDS011;53978;43.846;25.952;2023-05-10T14:44:09;3.78;;;1.67;;
67065;SDS011;53978;43.846;25.952;2023-05-10T14:46:35;5.07;;;1.70;;
67065;SDS011;53978;43.846;25.952;2023-05-10T14:49:00;1.85;;;1.58;;
67065;SDS011;53978;43.846;25.952;2023-05-10T14:51:25;6.88;;;1.83;;
67065;SDS011;53978;43.846;25.952;2023-05-10T14:53:51;3.08;;;1.70;;
67065;SDS011;53978;43.846;25.952;2023-05-10T14:56:16;8.00;;;1.88;;
67065;SDS011;53978;43.846;25.952;2023-05-10T14:58:42;6.03;;;1.80;;
67065;SDS011;53978;43.846;25.952;2023-05-10T15:01:07;4.15;;;1.60;;
67065;SDS011;53978;43.846;25.952;2023-05-10T15:03:32;8.88;;;1.70;;
67065;SDS011;53978;43.846;25.952;2023-05-10T15:05:58;2.20;;;1.85;;
67065;SDS011;53978;43.846;25.952;2023-05-10T15:08:23;1.85;;;1.30;;
67065;SDS011;53978;43.846;25.952;2023-05-10T15:10:49;6.80;;;1.80;;
67065;SDS011;53978;43.846;25.952;2023-05-10T15:13:15;7.55;;;3.92;;
67065;SDS011;53978;43.846;25.952;2023-05-10T15:15:41;4.20;;;2.17;;
67065;SDS011;53978;43.846;25.952;2023-05-10T15:18:06;1.95;;;1.70;;
67065;SDS011;53978;43.846;25.952;2023-05-10T15:20:32;9.70;;;1.40;;